createdAt,value
2019-04-16T00:03:03.921Z,8.43
2019-04-16T00:07:50.919Z,8.13
2019-04-16T00:12:12.696Z,7.70
2019-04-16T00:16:25.083Z,8.17
2019-04-16T00:20:43.700Z,7.80
2019-04-16T00:24:57.847Z,7.50
2019-04-16T00:29:10.220Z,6.80
2019-04-16T00:33:23.104Z,6.07
2019-04-16T00:37:35.688Z,6.03
2019-04-16T00:41:48.096Z,6.80
2019-04-16T00:46:01.068Z,6.13
2019-04-16T00:50:13.428Z,6.13
2019-04-16T00:54:25.832Z,5.17
2019-04-16T00:58:38.625Z,5.93
2019-04-16T01:02:51.080Z,5.13
2019-04-16T01:07:03.595Z,5.17
2019-04-16T01:11:16.448Z,4.83
2019-04-16T01:15:29.169Z,5.00
2019-04-16T01:19:43.822Z,5.23
2019-04-16T01:23:56.225Z,4.60
2019-04-16T01:28:12.149Z,4.97
2019-04-16T01:32:43.446Z,4.60
2019-04-16T01:37:10.444Z,3.57
2019-04-16T01:41:22.849Z,4.43
2019-04-16T01:45:35.744Z,3.67
2019-04-16T01:49:49.387Z,3.57
2019-04-16T01:54:01.639Z,3.73
2019-04-16T01:58:13.944Z,2.97
2019-04-16T02:02:26.259Z,3.07
2019-04-16T02:06:39.053Z,3.20
2019-04-16T02:10:51.809Z,2.47
2019-04-16T02:15:04.737Z,2.87
2019-04-16T02:19:18.397Z,3.33
2019-04-16T02:23:30.914Z,4.57
2019-04-16T02:27:43.909Z,4.60
2019-04-16T02:31:56.459Z,5.10
2019-04-16T02:36:09.022Z,4.13
2019-04-16T02:40:21.977Z,3.20
2019-04-16T02:44:34.485Z,3.30
2019-04-16T02:48:51.452Z,3.53
2019-04-16T02:53:24.647Z,3.83
2019-04-16T02:57:46.462Z,4.00
2019-04-16T03:02:29.800Z,4.23
2019-04-16T03:06:42.128Z,4.77
2019-04-16T03:10:54.448Z,3.77
2019-04-16T03:15:07.805Z,5.03
2019-04-16T03:19:26.761Z,3.93
2019-04-16T03:23:39.481Z,3.77
2019-04-16T03:27:54.404Z,4.47
2019-04-16T03:32:06.355Z,4.20
2019-04-16T03:36:18.834Z,4.07
2019-04-16T03:40:31.925Z,4.90
2019-04-16T03:44:44.532Z,3.80
2019-04-16T03:48:57.581Z,3.47
2019-04-16T03:53:10.167Z,4.33
2019-04-16T03:57:22.489Z,2.87
2019-04-16T04:01:35.400Z,3.30
2019-04-16T04:05:56.414Z,2.60
2019-04-16T04:10:09.360Z,2.63
2019-04-16T04:14:23.420Z,3.13
2019-04-16T04:18:36.836Z,2.37
2019-04-16T04:22:49.159Z,3.50
2019-04-16T04:27:02.150Z,2.63
2019-04-16T04:31:14.614Z,3.00
2019-04-16T04:35:27.018Z,2.57
2019-04-16T04:39:43.927Z,2.27
2019-04-16T04:43:53.964Z,2.33
2019-04-16T04:48:06.689Z,2.93
2019-04-16T04:52:19.680Z,2.93
2019-04-16T04:56:32.548Z,2.60
2019-04-16T05:00:45.001Z,2.37
2019-04-16T05:05:02.653Z,2.90
2019-04-16T05:09:17.102Z,3.37
2019-04-16T05:13:29.987Z,2.80
2019-04-16T05:17:42.555Z,3.03
2019-04-16T05:21:55.029Z,3.20
2019-04-16T05:26:09.828Z,2.93
2019-04-16T05:30:22.216Z,3.40
2019-04-16T05:34:37.532Z,3.30
2019-04-16T05:38:48.991Z,4.37
2019-04-16T05:43:01.887Z,3.80
2019-04-16T05:47:18.071Z,4.60
2019-04-16T05:51:31.383Z,5.50
2019-04-16T05:55:59.794Z,5.70
2019-04-16T06:00:23.370Z,6.20
2019-04-16T06:04:36.249Z,6.37
2019-04-16T06:08:48.775Z,5.47
2019-04-16T06:13:18.919Z,6.30
2019-04-16T06:17:49.161Z,6.67
2019-04-16T06:22:28.410Z,6.63
2019-04-16T06:26:48.108Z,7.07
2019-04-16T06:31:18.055Z,6.63
2019-04-16T06:35:58.075Z,6.50
2019-04-16T06:40:35.169Z,6.97
2019-04-16T06:44:54.079Z,7.03
2019-04-16T06:49:18.779Z,7.90
2019-04-16T06:53:53.960Z,7.17
2019-04-16T06:58:27.484Z,7.33
2019-04-16T07:03:02.192Z,7.40
2019-04-16T07:07:37.894Z,5.73
2019-04-16T07:11:53.459Z,6.23
2019-04-16T07:15:56.988Z,7.03
2019-04-16T07:20:13.046Z,7.63
2019-04-16T07:24:23.817Z,5.57
2019-04-16T07:28:47.711Z,6.80
2019-04-16T07:33:28.676Z,7.23
2019-04-16T07:38:05.779Z,7.57
2019-04-16T07:42:35.094Z,8.13
2019-04-16T07:47:08.460Z,6.97
2019-04-16T07:51:30.416Z,6.93
2019-04-16T07:56:05.036Z,6.47
2019-04-16T08:00:18.287Z,6.60
2019-04-16T08:04:35.240Z,8.00
2019-04-16T08:08:45.683Z,7.57
2019-04-16T08:13:09.584Z,7.43
2019-04-16T08:17:22.173Z,7.33
2019-04-16T08:21:34.490Z,6.83
2019-04-16T08:25:47.390Z,6.90
2019-04-16T08:30:03.688Z,6.17
2019-04-16T08:34:13.908Z,5.60
2019-04-16T08:38:26.329Z,5.30
2019-04-16T08:42:44.731Z,4.63
2019-04-16T08:46:53.565Z,5.10
2019-04-16T08:51:05.901Z,4.60
2019-04-16T08:55:20.432Z,4.30
2019-04-16T08:59:33.133Z,3.53
2019-04-16T09:03:48.356Z,3.67
2019-04-16T09:08:13.023Z,4.43
2019-04-16T09:12:24.941Z,3.90
2019-04-16T09:16:45.988Z,3.07
2019-04-16T09:21:10.306Z,3.30
2019-04-16T09:25:54.235Z,3.73
2019-04-16T09:30:25.285Z,4.43
2019-04-16T09:35:08.921Z,3.03
2019-04-16T09:39:33.165Z,3.67
2019-04-16T09:43:48.827Z,3.57
2019-04-16T09:48:03.517Z,3.03
2019-04-16T09:52:16.231Z,3.50
2019-04-16T09:56:30.240Z,2.93
2019-04-16T10:00:47.150Z,4.10
2019-04-16T10:04:59.714Z,3.13
2019-04-16T10:09:13.176Z,3.40
2019-04-16T10:13:32.875Z,2.60
2019-04-16T10:17:40.197Z,2.70
2019-04-16T10:21:54.355Z,3.00
2019-04-16T10:26:07.170Z,2.90
2019-04-16T10:30:30.679Z,3.03
2019-04-16T10:34:44.361Z,2.60
2019-04-16T10:39:05.862Z,3.10
2019-04-16T10:43:47.459Z,3.23
2019-04-16T10:48:17.716Z,2.93
2019-04-16T10:52:47.730Z,2.60
2019-04-16T10:57:15.025Z,2.60
2019-04-16T11:01:41.063Z,3.50
2019-04-16T11:05:58.897Z,2.60
2019-04-16T11:10:11.919Z,2.67
2019-04-16T11:14:24.911Z,2.70
2019-04-16T11:18:39.221Z,2.80
2019-04-16T11:22:52.083Z,2.30
2019-04-16T11:27:04.562Z,2.40
2019-04-16T11:31:19.099Z,2.73
2019-04-16T11:35:31.704Z,2.33
2019-04-16T11:39:44.044Z,2.80
2019-04-16T11:43:56.986Z,2.90
2019-04-16T11:48:10.245Z,2.50
2019-04-16T11:52:23.130Z,2.83
2019-04-16T11:56:36.118Z,2.87
2019-04-16T12:00:54.015Z,2.70
2019-04-16T12:05:28.954Z,2.83
2019-04-16T12:10:19.640Z,1.93
2019-04-16T12:14:50.076Z,3.07
2019-04-16T12:19:21.664Z,2.20
2019-04-16T12:23:51.154Z,2.83
2019-04-16T12:28:31.838Z,2.97
2019-04-16T12:32:57.250Z,2.80
2019-04-16T12:37:37.338Z,2.67
2019-04-16T12:42:05.057Z,2.50
2019-04-16T12:46:29.516Z,3.23
2019-04-16T12:50:59.209Z,2.57
2019-04-16T12:55:42.544Z,2.80
2019-04-16T13:00:16.362Z,2.27
2019-04-16T13:04:50.589Z,3.03
2019-04-16T13:09:18.404Z,2.63
2019-04-16T13:13:54.624Z,3.10
2019-04-16T13:18:15.424Z,2.80
2019-04-16T13:22:32.744Z,3.20
2019-04-16T13:27:06.905Z,2.23
2019-04-16T13:31:19.255Z,2.40
2019-04-16T13:35:32.253Z,2.50
2019-04-16T13:39:59.584Z,3.23
2019-04-16T13:44:12.769Z,2.37
2019-04-16T13:48:59.416Z,3.00
2019-04-16T13:53:28.720Z,2.87
2019-04-16T13:57:38.305Z,2.57
2019-04-16T14:01:58.976Z,2.60
2019-04-16T14:06:11.290Z,3.10
2019-04-16T14:10:24.162Z,2.73
2019-04-16T14:14:36.907Z,2.77
2019-04-16T14:18:49.593Z,2.80
2019-04-16T14:23:02.049Z,3.10
2019-04-16T14:27:15.042Z,3.10
2019-04-16T14:31:27.841Z,2.60
2019-04-16T14:35:41.404Z,2.50
2019-04-16T14:40:13.092Z,3.37
2019-04-16T14:44:27.499Z,3.63
2019-04-16T14:48:45.298Z,3.07
2019-04-16T14:52:55.122Z,3.57
2019-04-16T14:57:10.901Z,3.07
2019-04-16T15:01:52.755Z,2.30
2019-04-16T15:06:19.409Z,3.03
2019-04-16T15:10:53.220Z,2.33
2019-04-16T15:15:24.375Z,2.60
2019-04-16T15:19:58.538Z,2.90
2019-04-16T15:24:26.516Z,2.57
2019-04-16T15:28:48.556Z,2.43
2019-04-16T15:33:19.777Z,2.37
2019-04-16T15:37:45.258Z,2.43
2019-04-16T15:42:23.011Z,2.87
2019-04-16T15:47:13.346Z,2.27
2019-04-16T15:51:37.440Z,2.73
2019-04-16T15:56:05.591Z,2.87
2019-04-16T16:00:41.384Z,2.97
2019-04-16T16:05:08.448Z,2.70
2019-04-16T16:09:25.365Z,2.50
2019-04-16T16:13:36.716Z,2.80
2019-04-16T16:17:49.613Z,2.70
2019-04-16T16:22:01.987Z,2.60
2019-04-16T16:26:14.761Z,2.23
2019-04-16T16:30:27.320Z,2.57
2019-04-16T16:34:39.732Z,2.67
2019-04-16T16:38:52.615Z,2.80
2019-04-16T16:43:07.892Z,2.23
2019-04-16T16:47:24.265Z,2.43
2019-04-16T16:51:38.492Z,2.23
2019-04-16T16:55:57.105Z,2.70
2019-04-16T17:00:28.107Z,2.60
2019-04-16T17:04:44.964Z,2.37
2019-04-16T17:08:57.566Z,2.87
2019-04-16T17:13:13.086Z,2.27
2019-04-16T17:17:25.018Z,2.33
2019-04-16T17:21:37.939Z,2.60
2019-04-16T17:25:50.825Z,2.43
2019-04-16T17:30:04.094Z,2.70
2019-04-16T17:34:16.924Z,2.43
2019-04-16T17:38:29.487Z,2.57
2019-04-16T17:42:43.657Z,2.87
2019-04-16T17:47:31.513Z,2.57
2019-04-16T17:51:53.407Z,2.03
2019-04-16T17:56:23.230Z,2.20
2019-04-16T18:00:54.540Z,2.80
2019-04-16T18:05:28.818Z,3.13
2019-04-16T18:09:53.047Z,2.97
2019-04-16T18:14:27.028Z,2.10
2019-04-16T18:19:04.729Z,2.47
2019-04-16T18:23:32.349Z,2.47
2019-04-16T18:27:53.981Z,2.53
2019-04-16T18:32:31.787Z,1.90
2019-04-16T18:37:00.995Z,2.27
2019-04-16T18:41:27.823Z,2.47
2019-04-16T18:45:57.943Z,2.63
2019-04-16T18:50:15.635Z,2.50
2019-04-16T18:54:28.046Z,2.20
2019-04-16T18:58:41.768Z,2.57
2019-04-16T19:02:54.649Z,2.30
2019-04-16T19:07:08.297Z,2.30
2019-04-16T19:11:20.763Z,2.13
2019-04-16T19:15:33.166Z,2.83
2019-04-16T19:19:46.112Z,2.63
2019-04-16T19:23:58.607Z,2.53
2019-04-16T19:28:11.125Z,2.73
2019-04-16T19:32:24.760Z,2.37
2019-04-16T19:36:37.904Z,2.00
2019-04-16T19:40:50.960Z,2.23
2019-04-16T19:45:04.816Z,2.50
2019-04-16T19:49:17.484Z,2.60
2019-04-16T19:53:30.186Z,2.33
2019-04-16T19:57:42.648Z,2.10
2019-04-16T20:02:00.212Z,2.40
2019-04-16T20:06:11.469Z,2.53
2019-04-16T20:10:23.980Z,2.43
2019-04-16T20:14:36.767Z,2.40
2019-04-16T20:18:51.147Z,2.13
2019-04-16T20:23:03.174Z,3.27
2019-04-16T20:27:19.432Z,3.40
2019-04-16T20:31:30.056Z,3.83
2019-04-16T20:35:42.366Z,3.53
2019-04-16T20:39:55.442Z,3.97
2019-04-16T20:44:09.276Z,4.00
2019-04-16T20:48:23.133Z,3.17
2019-04-16T20:52:36.162Z,3.80
2019-04-16T20:56:50.027Z,3.80
2019-04-16T21:01:03.270Z,4.27
2019-04-16T21:05:22.449Z,4.20
2019-04-16T21:09:30.990Z,4.63
2019-04-16T21:13:43.726Z,4.40
2019-04-16T21:17:56.633Z,4.70
2019-04-16T21:22:09.452Z,4.27
2019-04-16T21:26:21.728Z,4.20
2019-04-16T21:30:34.800Z,4.47
2019-04-16T21:34:58.641Z,4.30
2019-04-16T21:39:17.464Z,4.30
2019-04-16T21:43:28.984Z,4.10
2019-04-16T21:47:41.779Z,5.20
2019-04-16T21:52:10.373Z,3.90
2019-04-16T21:56:23.078Z,4.30
2019-04-16T22:00:52.817Z,4.27
2019-04-16T22:05:07.097Z,4.30
2019-04-16T22:09:19.408Z,4.57
2019-04-16T22:13:32.283Z,4.10
2019-04-16T22:17:44.756Z,4.67
2019-04-16T22:21:57.160Z,4.37
2019-04-16T22:26:10.996Z,4.37
2019-04-16T22:30:23.803Z,4.43
2019-04-16T22:34:36.347Z,4.60
2019-04-16T22:38:53.788Z,4.17
2019-04-16T22:43:23.905Z,3.93
2019-04-16T22:47:46.587Z,3.87
2019-04-16T22:51:59.369Z,3.73
2019-04-16T22:56:11.995Z,3.90
2019-04-16T23:00:44.495Z,3.30
2019-04-16T23:04:58.516Z,4.13
2019-04-16T23:09:16.756Z,3.53
2019-04-16T23:13:25.805Z,3.77
2019-04-16T23:17:38.272Z,4.37
2019-04-16T23:21:50.590Z,4.60
2019-04-16T23:26:02.992Z,5.30
2019-04-16T23:30:18.249Z,5.10
2019-04-16T23:34:29.776Z,4.70
2019-04-16T23:38:42.188Z,4.93
2019-04-16T23:43:11.993Z,4.47
2019-04-16T23:47:53.056Z,4.67
2019-04-16T23:52:13.012Z,4.60
2019-04-16T23:56:44.236Z,4.47
